»·PEaware :: SWA6261 KLAS-KOAK

SWA6261 :: KLAS-KOAK

FLIGHT INFORMATION

Flight Status: Arrived
Operator:
Southwest Airlines
More flights by this operator :: More flights under this callsign
Pilot: Brandon G. (13)
Aircraft: BOEING 737-800
(B738)
More flights by this aircraft type
Origin: KLAS McCarran Intl
United States
Destination: KOAK Metro Oakland Intl
United States
More flights between these airports :: More routes between these airports
Route: +SHEAD1 KENNO RUSME OAKES2
File this flight plan on PilotEdge
Remarks:
Altitude:
(Current/Filed)
29,000ft
Speed:
(Current/Filed)
425kts
Departed: 03-Jan-18 05:58 PM
Arrived: 03-Jan-18 07:04 PM
Distance/Time
Traveled:
353nm/1:06
Distance/Time
To Go:
Arrived

Flight Plot

Page will automatically refresh every two minutes.

Flight plan parsing failed; only flown route is shown


Map Options




Map Legend


Flown Route
Filed Route
Departure Airport
Arrival Airport
Navaid (VOR, NDB)
Fix

Horizontal Profiles

Position Reports

Time Latitude Longitude Heading Altitude Ground
Speed
03-Jan-18 17:39 36.080064 -115.134922 319 2061ft 0kts
03-Jan-18 17:40 36.080064 -115.134922 319 2061ft 0kts
03-Jan-18 17:41 36.080064 -115.134922 319 2061ft 0kts
03-Jan-18 17:42 36.080064 -115.134922 319 2061ft 0kts
03-Jan-18 17:43 36.080064 -115.134922 319 2061ft 0kts
03-Jan-18 17:44 36.080064 -115.134922 319 2061ft 0kts
03-Jan-18 17:45 36.080064 -115.134922 319 2061ft 0kts
03-Jan-18 17:46 36.080064 -115.134922 319 2061ft 0kts
03-Jan-18 17:47 36.080064 -115.134922 319 2061ft 0kts
03-Jan-18 17:48 36.080064 -115.134922 319 2061ft 0kts
03-Jan-18 17:49 36.080064 -115.134922 319 2061ft 0kts
03-Jan-18 17:50 36.080064 -115.134922 319 2061ft 0kts
03-Jan-18 17:51 36.080064 -115.134922 319 2061ft 0kts
03-Jan-18 17:52 36.080064 -115.134922 319 2061ft 0kts
03-Jan-18 17:53 36.080064 -115.134922 319 2061ft 0kts
03-Jan-18 17:54 36.079945 -115.134796 320 2061ft 0kts
03-Jan-18 17:55 36.079793 -115.134149 249 2058ft 2kts
03-Jan-18 17:56 36.079876 -115.133970 229 2058ft 0kts
03-Jan-18 17:57 36.079876 -115.133970 229 2058ft 0kts
03-Jan-18 17:58 36.079854 -115.134001 228 2058ft 1kts
03-Jan-18 17:59 36.079224 -115.134183 144 2060ft 4kts
03-Jan-18 18:00 36.078268 -115.132141 89 2056ft 13kts
03-Jan-18 18:01 36.078277 -115.125742 89 2040ft 19kts
03-Jan-18 18:02 36.077662 -115.121758 129 2036ft 3kts
03-Jan-18 18:03 36.076436 -115.122282 270 2038ft 15kts
03-Jan-18 18:04 36.077001 -115.164339 274 3658ft 179kts
03-Jan-18 18:05 36.069545 -115.241630 236 5690ft 269kts
03-Jan-18 18:06 36.004546 -115.285995 201 7015ft 279kts
03-Jan-18 18:07 35.940902 -115.338222 225 8986ft 282kts
03-Jan-18 18:08 35.891217 -115.408745 253 10084ft 286kts
03-Jan-18 18:09 35.888180 -115.512048 270 11019ft 310kts
03-Jan-18 18:10 35.889866 -115.617934 271 11017ft 309kts
03-Jan-18 18:11 35.891499 -115.708920 270 12980ft 316kts
03-Jan-18 18:12 35.893220 -115.818040 269 16633ft 328kts
03-Jan-18 18:13 35.895123 -115.930982 270 19980ft 340kts
03-Jan-18 18:14 35.946794 -116.029828 312 22912ft 371kts
03-Jan-18 18:15 36.022692 -116.117976 311 25594ft 387kts
03-Jan-18 18:16 36.100641 -116.208451 311 27997ft 402kts
03-Jan-18 18:17 36.182347 -116.303215 310 30175ft 417kts
03-Jan-18 18:18 36.266009 -116.400115 310 32547ft 419kts
03-Jan-18 18:19 36.349793 -116.497117 309 34815ft 415kts
03-Jan-18 18:20 36.432427 -116.592724 309 36754ft 412kts
03-Jan-18 18:21 36.511084 -116.684702 308 38311ft 411kts
03-Jan-18 18:22 36.598341 -116.775257 321 39699ft 422kts
03-Jan-18 18:23 36.698572 -116.850901 321 40195ft 436kts
03-Jan-18 18:24 36.803711 -116.931426 321 40193ft 461kts
03-Jan-18 18:25 36.914425 -117.016293 322 40209ft 479kts
03-Jan-18 18:26 37.022949 -117.099446 322 40222ft 478kts
03-Jan-18 18:27 37.127851 -117.179814 323 40212ft 472kts
03-Jan-18 18:28 37.239698 -117.265448 323 40216ft 472kts
03-Jan-18 18:29 37.344706 -117.358966 314 40213ft 465kts
03-Jan-18 18:30 37.442574 -117.464629 314 40200ft 465kts
03-Jan-18 18:31 37.502867 -117.597576 278 40206ft 440kts
03-Jan-18 18:32 37.523626 -117.741510 274 40186ft 437kts
03-Jan-18 18:33 37.542979 -117.891933 274 40176ft 437kts
03-Jan-18 18:34 37.562318 -118.042813 275 40175ft 438kts
03-Jan-18 18:35 37.581786 -118.193477 275 40173ft 438kts
03-Jan-18 18:36 37.601403 -118.343775 275 40174ft 438kts
03-Jan-18 18:37 37.621124 -118.493368 275 40221ft 438kts
03-Jan-18 18:38 37.641103 -118.643608 275 40251ft 438kts
03-Jan-18 18:39 37.659873 -118.783718 275 40257ft 438kts
03-Jan-18 18:40 37.680053 -118.932701 275 40259ft 448kts
03-Jan-18 18:41 37.701215 -119.087503 275 40258ft 458kts
03-Jan-18 18:42 37.722772 -119.243693 275 40261ft 457kts
03-Jan-18 18:43 37.744602 -119.400347 275 40256ft 457kts
03-Jan-18 18:44 37.765454 -119.548766 275 39539ft 434kts
03-Jan-18 18:45 37.785391 -119.689497 275 37454ft 440kts
03-Jan-18 18:46 37.806536 -119.837289 275 35290ft 438kts
03-Jan-18 18:47 37.827988 -119.985994 275 33150ft 445kts
03-Jan-18 18:48 37.849901 -120.136398 276 30982ft 451kts
03-Jan-18 18:49 37.871827 -120.285946 276 28822ft 454kts
03-Jan-18 18:50 37.868289 -120.430119 253 26725ft 401kts
03-Jan-18 18:51 37.845448 -120.562818 253 24806ft 392kts
03-Jan-18 18:52 37.826745 -120.672781 253 23198ft 384kts
03-Jan-18 18:53 37.807053 -120.789211 253 21495ft 375kts
03-Jan-18 18:54 37.786655 -120.908934 253 19750ft 366kts
03-Jan-18 18:55 37.765460 -121.030259 253 17986ft 355kts
03-Jan-18 18:56 37.745011 -121.147806 253 16204ft 342kts
03-Jan-18 18:57 37.725259 -121.261322 253 14553ft 332kts
03-Jan-18 18:58 37.698344 -121.369159 248 12949ft 323kts
03-Jan-18 18:59 37.670776 -121.474528 248 11369ft 318kts
03-Jan-18 19:00 37.643906 -121.577924 248 9805ft 301kts
03-Jan-18 19:01 37.619163 -121.673433 248 8364ft 282kts
03-Jan-18 19:02 37.609893 -121.768904 262 6993ft 273kts
03-Jan-18 19:03 37.606771 -121.861377 268 5677ft 266kts
03-Jan-18 19:04 37.607603 -121.950755 267 4499ft 258kts
03-Jan-18 19:05 37.607548 -122.036941 275 3240ft 253kts
03-Jan-18 19:06 37.630989 -122.108477 307 2141ft 202kts
03-Jan-18 19:07 37.660516 -122.152862 307 1259ft 145kts
03-Jan-18 19:08 37.682276 -122.184981 306 705ft 145kts
03-Jan-18 19:09 37.709785 -122.226696 309 11ft 79kts
03-Jan-18 19:10 37.713033 -122.230831 334 11ft 14kts
03-Jan-18 19:11 37.714672 -122.230249 129 11ft 9kts
03-Jan-18 19:12 37.712557 -122.227078 130 11ft 14kts
03-Jan-18 19:13 37.709291 -122.222324 129 11ft 26kts
03-Jan-18 19:14 37.707415 -122.217342 39 11ft 11kts
03-Jan-18 19:15 37.709024 -122.214767 46 11ft 7kts
03-Jan-18 19:16 37.708895 -122.213355 92 11ft 0kts
03-Jan-18 19:17 37.708895 -122.213355 92 11ft 0kts
03-Jan-18 19:18 37.708895 -122.213355 92 11ft 0kts
03-Jan-18 19:19 37.708895 -122.213355 92 11ft 0kts
03-Jan-18 19:20 37.708895 -122.213355 92 11ft 0kts
03-Jan-18 19:21 37.708895 -122.213355 92 11ft 0kts
03-Jan-18 19:22 37.708895 -122.213355 92 11ft 0kts

Navigation Log

Ident Type
Flight plan parsing failed, navigation log unavailable